KIKK/IKK METAR and TAF weather

Enter ICAO airport designator
Station Type Date Time Source
KIKK METAR 2020/01/27 10:55 UTC NOAA

KIKK 271055Z AUTO 32005KT 10SM SCT012 BKN037 OVC042 M02/M03 A2992 RMK AO2 T10171035


Station Type Date Time Source
KIKK Decoded METAR 2020/01/27 10:55 UTC NOAA

Kankakee, Greater Kankakee Airport, IL, United States (KIKK) 41-04-17N 087-50-47W
Jan 27, 2020 - 05:55 AM EST / 2020.01.27 1055 UTC
Wind: from the NW (320 degrees) at 6 MPH (5 KT):0
Visibility: 10 mile(s):0
Sky conditions: overcast
Temperature: 28.9 F (-1.7 C)
Windchill: 23 F (-5 C):1
Dew Point: 25.7 F (-3.5 C)
Relative Humidity: 87%
Pressure (altimeter): 29.92 in. Hg (1013 hPa)
ob: KIKK 271055Z AUTO 32005KT 10SM SCT012 BKN037 OVC042 M02/M03 A2992 RMK AO2 T10171035
cycle: 11

Station Type Date Time Source
KIKK TAF UTC NOAA

Error!

Example: see airport list